Time;durP1;ratioP1;P1;durP2;ratioP2;P2;SDS_P1;SDS_P2;PMS_P1;PMS_P2;Temp;Humidity;BMP_temperature;BMP_pressure;BME280_temperature;BME280_humidity;BME280_pressure;Samples;Min_cycle;Max_cycle;Signal;HPM_P1;HPM_P2
2023/03/15 00:02:01;;;;;;;;;;;4.80;70.60;;;;;;5082242;28;19912;-76
2023/03/15 00:04:27;;;;;;;;;;;4.80;68.60;;;;;;5066808;28;20394;-76
2023/03/15 00:06:52;;;;;;;;;;;4.70;71.10;;;;;;5074520;28;19916;-76
2023/03/15 00:09:18;;;;;;;;;;;4.50;74.70;;;;;;5080372;28;19916;-76
2023/03/15 00:11:44;;;;;;;;;;;4.30;77.00;;;;;;5062519;28;19919;-75
2023/03/15 00:14:09;;;;;;;;;;;3.90;78.30;;;;;;5072489;28;20485;-75
2023/03/15 00:16:35;;;;;;;;;;;3.90;78.80;;;;;;5079248;28;19916;-76
2023/03/15 00:19:01;;;;;;;;;;;3.80;79.80;;;;;;5080299;28;19919;-76
2023/03/15 00:21:28;;;;;;;;;;;3.70;81.20;;;;;;5068188;28;19908;-75
2023/03/15 00:23:54;;;;;;;;;;;3.80;81.60;;;;;;5137939;22;19978;-91
2023/03/15 00:26:20;;;;;;;;;;;3.70;81.60;;;;;;5098240;28;19979;-90
2023/03/15 00:28:48;;;;;;;;;;;3.70;81.70;;;;;;5084403;28;19958;-90
2023/03/15 00:31:18;;;;;;;;;;;3.80;82.00;;;;;;5093155;28;19918;-90
2023/03/15 00:33:47;;;;;;;;;;;3.80;82.20;;;;;;5094642;28;19907;-90
2023/03/15 00:36:13;;;;;;;;;;;3.80;82.40;;;;;;5073484;28;20020;-90
2023/03/15 00:38:39;;;;;;;;;;;3.80;81.90;;;;;;5074111;28;20427;-90
2023/03/15 00:41:09;;;;;;;;;;;3.80;81.00;;;;;;5073686;28;20401;-90
2023/03/15 00:43:35;;;;;;;;;;;3.90;80.50;;;;;;5071224;28;19913;-90
2023/03/15 00:46:00;;;;;;;;;;;3.90;80.50;;;;;;5089216;28;19916;-89
2023/03/15 00:48:28;;;;;;;;;;;3.90;80.70;;;;;;5071751;28;19931;-90
2023/03/15 00:51:01;;;;;;;;;;;3.90;80.40;;;;;;5064559;28;19912;-90
2023/03/15 00:53:26;;;;;;;;;;;4.00;81.00;;;;;;5067518;28;19911;-90
2023/03/15 00:55:52;;;;;;;;;;;4.00;80.90;;;;;;5066358;28;19916;-90
2023/03/15 00:58:18;;;;;;;;;;;4.10;81.20;;;;;;5076037;28;19947;-91
2023/03/15 01:00:43;;;;;;;;;;;4.00;80.70;;;;;;5073878;28;19917;-90
2023/03/15 01:03:09;;;;;;;;;;;4.20;80.00;;;;;;5074352;28;20014;-90
2023/03/15 01:05:35;;;;;;;;;;;4.10;80.70;;;;;;5070133;28;20369;-90
2023/03/15 01:08:03;;;;;;;;;;;4.00;81.00;;;;;;5084371;28;19998;-90
2023/03/15 01:10:29;;;;;;;;;;;4.10;81.50;;;;;;5066340;28;19912;-90
2023/03/15 01:15:46;;;;;;;;;;;4.10;81.60;;;;;;5092581;28;19974;-90
2023/03/15 01:18:12;;;;;;;;;;;4.10;81.40;;;;;;5060757;28;19912;-89
2023/03/15 01:20:40;;;;;;;;;;;4.10;81.80;;;;;;5064515;28;19917;-89
2023/03/15 01:23:06;;;;;;;;;;;4.10;82.30;;;;;;5125363;22;19924;-81
2023/03/15 01:25:41;;;;;;;;;;;4.10;82.40;;;;;;5095127;28;19927;-82
2023/03/15 01:28:06;;;;;;;;;;;4.00;82.30;;;;;;5111661;28;19911;-81
2023/03/15 01:30:32;;;;;;;;;;;4.00;83.80;;;;;;5097712;28;19914;-80
2023/03/15 01:32:57;;;;;;;;;;;4.00;83.70;;;;;;5087255;28;20433;-80
2023/03/15 01:35:23;;;;;;;;;;;3.90;84.70;;;;;;5096030;28;20340;-80
2023/03/15 01:37:49;;;;;;;;;;;3.90;84.50;;;;;;5094331;28;19912;-79
2023/03/15 01:40:15;;;;;;;;;;;3.80;84.90;;;;;;5106238;28;19964;-79
2023/03/15 01:43:13;;;;;;;;;;;3.80;85.70;;;;;;5093864;28;19911;-80
2023/03/15 01:45:53;;;;;;;;;;;3.60;86.00;;;;;;5080870;28;19931;-80
2023/03/15 01:48:20;;;;;;;;;;;3.60;86.10;;;;;;5091937;28;20282;-80
2023/03/15 01:50:45;;;;;;;;;;;3.60;86.40;;;;;;5119573;28;20286;-80
2023/03/15 01:53:11;;;;;;;;;;;3.60;86.50;;;;;;5092633;28;19922;-80
2023/03/15 01:55:37;;;;;;;;;;;3.60;86.30;;;;;;5097327;28;19912;-80
2023/03/15 01:58:05;;;;;;;;;;;3.70;86.80;;;;;;5087575;28;19915;-80
2023/03/15 02:00:31;;;;;;;;;;;3.70;86.30;;;;;;5094094;28;20007;-80
2023/03/15 02:03:15;;;;;;;;;;;3.60;86.40;;;;;;5109485;28;20428;-80
2023/03/15 02:05:45;;;;;;;;;;;3.60;86.60;;;;;;5090646;28;19916;-79
2023/03/15 02:08:11;;;;;;;;;;;3.60;87.00;;;;;;5085447;28;19938;-80
2023/03/15 02:10:45;;;;;;;;;;;3.60;87.00;;;;;;5096195;28;19923;-79
2023/03/15 02:13:12;;;;;;;;;;;3.50;86.80;;;;;;5113279;27;19955;-80
2023/03/15 02:15:38;;;;;;;;;;;3.50;87.00;;;;;;5082786;28;19943;-80
2023/03/15 02:18:03;;;;;;;;;;;3.50;87.00;;;;;;5078199;28;19912;-80
2023/03/15 02:20:49;;;;;;;;;;;3.50;87.50;;;;;;5088287;28;20346;-80
2023/03/15 02:23:16;;;;;;;;;;;3.40;87.20;;;;;;5101360;28;19931;-79
2023/03/15 02:25:48;;;;;;;;;;;3.50;87.40;;;;;;5078900;28;19913;-80
2023/03/15 02:28:14;;;;;;;;;;;3.40;87.30;;;;;;5109066;28;20425;-80
2023/03/15 02:30:40;;;;;;;;;;;3.50;87.30;;;;;;5108287;28;20356;-80
2023/03/15 02:33:10;;;;;;;;;;;3.50;87.40;;;;;;5089058;28;19919;-80
2023/03/15 02:35:35;;;;;;;;;;;3.50;87.20;;;;;;5076122;28;19923;-81
2023/03/15 02:38:01;;;;;;;;;;;3.50;86.90;;;;;;5095853;28;19908;-79
2023/03/15 02:40:27;;;;;;;;;;;3.50;86.80;;;;;;5094703;28;19922;-79
2023/03/15 02:42:55;;;;;;;;;;;3.50;86.80;;;;;;5093340;28;20275;-79
2023/03/15 02:45:21;;;;;;;;;;;3.60;86.70;;;;;;5082575;28;19977;-79
2023/03/15 02:47:47;;;;;;;;;;;3.60;86.60;;;;;;5080452;28;19912;-79
2023/03/15 02:50:13;;;;;;;;;;;3.50;86.70;;;;;;5105567;28;20024;-79
2023/03/15 02:52:38;;;;;;;;;;;3.60;86.60;;;;;;5093143;28;19912;-80
2023/03/15 02:55:04;;;;;;;;;;;3.60;86.80;;;;;;5119004;27;20065;-80
2023/03/15 02:57:29;;;;;;;;;;;3.60;86.20;;;;;;5118209;27;20064;-80
2023/03/15 02:59:56;;;;;;;;;;;3.60;86.60;;;;;;5117492;27;19904;-79
2023/03/15 03:02:22;;;;;;;;;;;3.50;86.90;;;;;;5118368;28;19946;-80
2023/03/15 03:04:48;;;;;;;;;;;3.60;86.40;;;;;;5112771;27;19915;-80
2023/03/15 03:07:13;;;;;;;;;;;3.50;86.30;;;;;;5112408;28;19904;-78
2023/03/15 03:09:39;;;;;;;;;;;3.70;86.30;;;;;;5116643;28;19933;-81
2023/03/15 03:12:04;;;;;;;;;;;3.60;86.20;;;;;;5099799;28;20007;-81
2023/03/15 03:14:30;;;;;;;;;;;3.60;85.90;;;;;;5092318;28;19924;-80
2023/03/15 03:16:55;;;;;;;;;;;3.60;86.40;;;;;;5108254;28;20422;-80
2023/03/15 03:19:24;;;;;;;;;;;3.60;86.30;;;;;;5117337;28;19916;-80
2023/03/15 03:21:52;;;;;;;;;;;3.70;86.70;;;;;;5118299;28;19911;-81
2023/03/15 03:24:17;;;;;;;;;;;3.70;86.10;;;;;;5118416;28;19947;-80
2023/03/15 03:26:44;;;;;;;;;;;3.70;86.20;;;;;;5103002;28;19976;-80
2023/03/15 03:29:10;;;;;;;;;;;3.70;86.20;;;;;;5096517;28;19912;-80
2023/03/15 03:31:36;;;;;;;;;;;3.80;86.10;;;;;;5090216;28;20394;-81
2023/03/15 03:34:01;;;;;;;;;;;3.70;86.40;;;;;;5105087;28;19923;-80
2023/03/15 03:36:27;;;;;;;;;;;3.70;86.40;;;;;;5106928;28;20331;-81
2023/03/15 03:38:52;;;;;;;;;;;3.80;86.30;;;;;;5113992;28;19919;-81
2023/03/15 03:41:18;;;;;;;;;;;3.70;86.10;;;;;;5096175;28;19955;-81
2023/03/15 03:43:44;;;;;;;;;;;3.60;86.50;;;;;;5113722;28;19916;-81
2023/03/15 03:46:09;;;;;;;;;;;3.70;85.90;;;;;;5104270;28;19919;-81
2023/03/15 03:48:35;;;;;;;;;;;3.70;86.20;;;;;;5094441;28;19911;-81
2023/03/15 03:51:00;;;;;;;;;;;3.60;86.10;;;;;;5112893;28;20410;-80
2023/03/15 03:53:26;;;;;;;;;;;3.70;86.30;;;;;;5099011;28;19911;-81
2023/03/15 03:55:53;;;;;;;;;;;3.70;86.10;;;;;;5104426;28;20460;-80
2023/03/15 03:58:19;;;;;;;;;;;3.70;86.50;;;;;;5101758;28;20451;-81
2023/03/15 04:00:44;;;;;;;;;;;3.60;86.70;;;;;;5097774;28;20425;-81
2023/03/15 04:03:10;;;;;;;;;;;3.70;86.70;;;;;;5101196;28;19915;-80
2023/03/15 04:05:36;;;;;;;;;;;3.80;86.50;;;;;;5089616;28;19988;-81
2023/03/15 04:08:01;;;;;;;;;;;3.70;86.30;;;;;;5108956;28;20003;-81
2023/03/15 04:10:27;;;;;;;;;;;3.80;86.50;;;;;;5083712;28;19919;-80
2023/03/15 04:12:53;;;;;;;;;;;3.80;85.90;;;;;;5096859;28;20548;-81
2023/03/15 04:15:21;;;;;;;;;;;3.90;85.90;;;;;;5076912;28;19916;-81
2023/03/15 04:17:47;;;;;;;;;;;3.80;85.70;;;;;;5111212;28;19912;-80
2023/03/15 04:20:12;;;;;;;;;;;3.80;86.20;;;;;;5106844;28;19934;-80
2023/03/15 04:22:38;;;;;;;;;;;4.00;85.90;;;;;;5088722;28;19912;-79
2023/03/15 04:25:04;;;;;;;;;;;4.00;85.90;;;;;;5112309;28;19938;-80
2023/03/15 04:27:29;;;;;;;;;;;4.00;85.30;;;;;;5114716;28;20645;-80
2023/03/15 04:29:55;;;;;;;;;;;4.00;85.30;;;;;;5101754;28;19912;-79
2023/03/15 04:32:20;;;;;;;;;;;4.00;84.60;;;;;;5087486;28;19920;-80
2023/03/15 04:34:50;;;;;;;;;;;3.90;84.90;;;;;;5098213;28;20069;-80
2023/03/15 04:37:16;;;;;;;;;;;3.80;85.00;;;;;;5084536;28;19920;-79
2023/03/15 04:39:42;;;;;;;;;;;3.70;85.30;;;;;;5098708;28;20523;-80
2023/03/15 04:42:07;;;;;;;;;;;3.70;84.90;;;;;;5100405;28;20590;-80
2023/03/15 04:44:33;;;;;;;;;;;3.60;85.30;;;;;;5098410;28;19915;-80
2023/03/15 04:46:58;;;;;;;;;;;3.60;85.60;;;;;;5110641;28;19943;-79
2023/03/15 04:49:24;;;;;;;;;;;3.50;85.50;;;;;;5101699;28;19919;-80
2023/03/15 04:51:49;;;;;;;;;;;3.50;85.70;;;;;;5101565;28;19910;-80
2023/03/15 04:54:15;;;;;;;;;;;3.50;85.30;;;;;;5101582;28;19977;-79
2023/03/15 04:56:41;;;;;;;;;;;3.60;85.60;;;;;;5081124;28;20298;-80
2023/03/15 04:59:06;;;;;;;;;;;3.50;85.80;;;;;;5117184;28;19916;-79
2023/03/15 05:01:32;;;;;;;;;;;3.50;85.90;;;;;;5087733;28;19908;-80
2023/03/15 05:03:57;;;;;;;;;;;3.60;85.50;;;;;;5086997;28;20400;-80
2023/03/15 05:06:23;;;;;;;;;;;3.50;85.10;;;;;;5106702;28;19912;-80
2023/03/15 05:08:49;;;;;;;;;;;3.40;85.70;;;;;;5099768;28;19959;-82
2023/03/15 05:11:14;;;;;;;;;;;3.50;86.20;;;;;;5088234;28;19908;-80
2023/03/15 05:13:39;;;;;;;;;;;3.60;85.30;;;;;;5106971;28;19912;-80
2023/03/15 05:16:05;;;;;;;;;;;3.60;84.90;;;;;;5104556;28;19915;-80
2023/03/15 05:18:30;;;;;;;;;;;3.70;84.20;;;;;;5108360;28;19915;-80
2023/03/15 05:20:56;;;;;;;;;;;3.70;84.70;;;;;;5090180;28;19923;-81
2023/03/15 05:23:22;;;;;;;;;;;3.80;84.60;;;;;;5110828;28;19927;-80
2023/03/15 05:25:54;;;;;;;;;;;3.80;84.40;;;;;;5091734;28;19960;-81
2023/03/15 05:28:23;;;;;;;;;;;3.90;84.80;;;;;;5122149;28;19907;-80
2023/03/15 05:30:49;;;;;;;;;;;3.90;84.30;;;;;;5121853;27;19911;-81
2023/03/15 05:33:14;;;;;;;;;;;3.80;84.60;;;;;;5104049;28;20336;-80
2023/03/15 05:35:42;;;;;;;;;;;4.00;84.40;;;;;;5091538;28;19915;-80
2023/03/15 05:38:08;;;;;;;;;;;3.90;84.40;;;;;;5097749;28;19919;-80
2023/03/15 05:40:33;;;;;;;;;;;3.90;85.00;;;;;;5097557;28;20099;-80
2023/03/15 05:42:59;;;;;;;;;;;3.90;84.90;;;;;;5096721;28;19912;-79
2023/03/15 05:45:24;;;;;;;;;;;3.90;84.90;;;;;;5099323;28;20190;-80
2023/03/15 05:47:50;;;;;;;;;;;3.90;85.20;;;;;;5099198;28;19953;-80
2023/03/15 05:50:15;;;;;;;;;;;4.00;85.20;;;;;;5114018;28;20433;-80
2023/03/15 05:52:41;;;;;;;;;;;4.00;85.00;;;;;;5108725;28;19975;-79
2023/03/15 05:55:07;;;;;;;;;;;4.00;85.00;;;;;;5104972;28;19916;-80
2023/03/15 05:57:32;;;;;;;;;;;4.10;84.60;;;;;;5108120;28;19929;-80
2023/03/15 05:59:58;;;;;;;;;;;4.10;84.80;;;;;;5092957;28;19908;-79
2023/03/15 06:02:23;;;;;;;;;;;4.10;84.80;;;;;;5090040;28;20941;-80
2023/03/15 06:04:49;;;;;;;;;;;4.10;85.00;;;;;;5099570;28;19918;-79
2023/03/15 06:07:14;;;;;;;;;;;4.10;84.70;;;;;;5100962;28;19908;-79
2023/03/15 06:09:40;;;;;;;;;;;3.90;85.10;;;;;;5090425;28;19997;-79
2023/03/15 06:12:05;;;;;;;;;;;3.80;85.90;;;;;;5119116;27;19923;-78
2023/03/15 06:14:31;;;;;;;;;;;3.80;86.20;;;;;;5091670;28;19919;-80
2023/03/15 06:16:56;;;;;;;;;;;3.80;86.10;;;;;;5092728;28;19920;-79
2023/03/15 06:19:22;;;;;;;;;;;3.90;85.80;;;;;;5094326;28;19981;-80
2023/03/15 06:21:48;;;;;;;;;;;4.00;85.50;;;;;;5104059;28;19912;-80
2023/03/15 06:24:14;;;;;;;;;;;4.10;85.20;;;;;;5093340;28;19937;-79
2023/03/15 06:26:40;;;;;;;;;;;4.10;85.30;;;;;;5111585;28;19919;-80
2023/03/15 06:29:05;;;;;;;;;;;4.10;84.80;;;;;;5095477;28;19958;-80
2023/03/15 06:31:31;;;;;;;;;;;4.20;84.70;;;;;;5094038;28;19912;-79
2023/03/15 06:33:56;;;;;;;;;;;4.20;84.10;;;;;;5099370;28;19915;-80
2023/03/15 06:36:23;;;;;;;;;;;4.20;84.50;;;;;;5117955;28;20366;-78
2023/03/15 06:38:49;;;;;;;;;;;4.20;85.00;;;;;;5109802;28;19934;-80
2023/03/15 06:41:14;;;;;;;;;;;4.10;85.10;;;;;;5087819;28;20658;-80
2023/03/15 06:43:40;;;;;;;;;;;4.20;84.80;;;;;;5091955;28;20371;-79
2023/03/15 06:46:06;;;;;;;;;;;4.30;84.90;;;;;;5107188;28;19919;-80
2023/03/15 06:51:22;;;;;;;;;;;4.20;84.60;;;;;;5118430;28;19979;-79
2023/03/15 06:53:47;;;;;;;;;;;4.30;84.50;;;;;;5097079;28;19912;-80
2023/03/15 06:56:13;;;;;;;;;;;4.30;84.40;;;;;;5096810;28;20060;-79
2023/03/15 06:58:38;;;;;;;;;;;4.20;84.50;;;;;;5093843;28;19935;-78
2023/03/15 07:01:04;;;;;;;;;;;4.20;85.00;;;;;;5085204;28;19919;-79
2023/03/15 07:03:29;;;;;;;;;;;4.10;84.90;;;;;;5097100;28;19966;-80
2023/03/15 07:05:55;;;;;;;;;;;4.10;85.00;;;;;;5089006;28;19912;-79
2023/03/15 07:08:21;;;;;;;;;;;4.20;85.20;;;;;;5099315;28;20178;-80
2023/03/15 07:10:47;;;;;;;;;;;4.40;84.70;;;;;;5091735;28;19908;-80
2023/03/15 07:13:12;;;;;;;;;;;4.40;84.60;;;;;;5113689;28;19919;-80
2023/03/15 07:15:38;;;;;;;;;;;4.40;83.90;;;;;;5104017;28;19971;-80
2023/03/15 07:18:04;;;;;;;;;;;4.40;83.70;;;;;;5103164;28;20014;-80
2023/03/15 07:20:30;;;;;;;;;;;4.60;82.00;;;;;;5106976;28;20285;-80
2023/03/15 07:22:56;;;;;;;;;;;4.50;81.60;;;;;;5087613;28;20815;-79
2023/03/15 07:25:22;;;;;;;;;;;4.60;81.60;;;;;;5089659;28;19919;-82
2023/03/15 07:27:52;;;;;;;;;;;4.50;79.70;;;;;;5087263;28;19941;-79
2023/03/15 07:30:17;;;;;;;;;;;4.50;79.50;;;;;;5097813;28;20357;-79
2023/03/15 07:32:43;;;;;;;;;;;4.40;78.90;;;;;;5099604;28;19958;-80
2023/03/15 07:35:08;;;;;;;;;;;4.30;79.60;;;;;;5095638;27;19916;-77
2023/03/15 07:37:34;;;;;;;;;;;4.40;79.40;;;;;;5106521;28;19915;-79
2023/03/15 07:40:08;;;;;;;;;;;4.40;79.90;;;;;;5105663;28;20335;-79
2023/03/15 07:42:37;;;;;;;;;;;4.30;79.30;;;;;;5080821;28;19908;-80
2023/03/15 07:45:03;;;;;;;;;;;4.30;80.10;;;;;;5078971;28;20394;-80
2023/03/15 07:47:29;;;;;;;;;;;4.40;78.90;;;;;;5105962;28;19912;-80
2023/03/15 07:49:55;;;;;;;;;;;4.50;79.70;;;;;;5092630;28;20005;-81
2023/03/15 07:52:21;;;;;;;;;;;4.60;79.00;;;;;;5080942;28;19916;-80
2023/03/15 07:54:46;;;;;;;;;;;4.60;79.50;;;;;;5080966;28;20436;-80
2023/03/15 07:57:12;;;;;;;;;;;4.70;79.60;;;;;;5084145;28;19912;-81
2023/03/15 07:59:37;;;;;;;;;;;4.80;78.40;;;;;;5102566;28;19912;-80
2023/03/15 08:02:03;;;;;;;;;;;4.70;78.50;;;;;;5103923;28;19937;-81
2023/03/15 08:04:28;;;;;;;;;;;4.70;78.80;;;;;;5108793;28;20310;-80
2023/03/15 08:06:54;;;;;;;;;;;4.60;78.60;;;;;;5096625;28;19911;-81
2023/03/15 08:09:19;;;;;;;;;;;4.70;77.70;;;;;;5106094;28;19912;-80
2023/03/15 08:11:45;;;;;;;;;;;4.60;76.60;;;;;;5087862;28;19920;-81
2023/03/15 08:14:10;;;;;;;;;;;4.60;76.60;;;;;;5082193;28;19919;-81
2023/03/15 08:16:36;;;;;;;;;;;4.60;76.80;;;;;;5089718;28;20019;-78
2023/03/15 08:19:01;;;;;;;;;;;4.80;76.60;;;;;;5110285;28;19923;-78
2023/03/15 08:21:27;;;;;;;;;;;4.60;77.20;;;;;;5109809;28;19916;-78
2023/03/15 08:23:52;;;;;;;;;;;4.60;78.50;;;;;;5107189;28;19966;-88
2023/03/15 08:26:18;;;;;;;;;;;4.60;79.30;;;;;;5091273;27;19915;-90
2023/03/15 08:28:43;;;;;;;;;;;4.70;77.90;;;;;;5113268;27;20681;-83
2023/03/15 08:31:12;;;;;;;;;;;4.50;79.40;;;;;;5094381;28;19964;-84
2023/03/15 08:33:38;;;;;;;;;;;4.50;80.00;;;;;;5088743;28;19908;-84
2023/03/15 08:36:04;;;;;;;;;;;4.50;80.10;;;;;;5080793;28;19922;-83
2023/03/15 08:38:29;;;;;;;;;;;4.70;79.20;;;;;;5094342;28;20445;-84
2023/03/15 08:40:55;;;;;;;;;;;5.00;79.90;;;;;;5105397;28;20393;-84
2023/03/15 08:43:21;;;;;;;;;;;5.00;80.00;;;;;;5091081;28;19938;-84
2023/03/15 08:45:47;;;;;;;;;;;5.10;78.60;;;;;;5089039;28;19912;-82
2023/03/15 08:48:13;;;;;;;;;;;5.10;78.10;;;;;;5085777;28;19931;-84
2023/03/15 08:50:38;;;;;;;;;;;5.10;77.30;;;;;;5091686;28;19911;-84
2023/03/15 08:53:04;;;;;;;;;;;5.00;76.80;;;;;;5094358;28;19919;-83
2023/03/15 08:55:29;;;;;;;;;;;5.00;77.50;;;;;;5076329;28;19916;-85
2023/03/15 08:57:55;;;;;;;;;;;5.00;78.20;;;;;;5094164;28;20347;-85
2023/03/15 09:00:21;;;;;;;;;;;4.90;78.20;;;;;;5114809;28;19952;-83
2023/03/15 09:02:48;;;;;;;;;;;4.80;78.10;;;;;;5098467;28;19970;-87
2023/03/15 09:05:14;;;;;;;;;;;4.80;78.10;;;;;;5099495;28;19915;-83
2023/03/15 09:07:41;;;;;;;;;;;5.00;76.90;;;;;;5098018;28;20283;-83
2023/03/15 09:10:13;;;;;;;;;;;5.00;76.70;;;;;;5089078;28;19912;-81
2023/03/15 09:12:40;;;;;;;;;;;5.10;76.20;;;;;;5093992;28;20367;-80
2023/03/15 09:15:05;;;;;;;;;;;5.20;77.00;;;;;;5092139;28;19920;-81
2023/03/15 09:17:31;;;;;;;;;;;5.40;75.30;;;;;;5085595;28;20011;-81
2023/03/15 09:19:56;;;;;;;;;;;5.70;74.40;;;;;;5090010;28;19911;-81
2023/03/15 09:22:22;;;;;;;;;;;6.00;72.40;;;;;;5105273;27;19961;-80
2023/03/15 09:24:47;;;;;;;;;;;5.90;72.20;;;;;;5087369;28;20504;-79
2023/03/15 09:27:13;;;;;;;;;;;5.80;72.00;;;;;;5098795;28;19912;-81
2023/03/15 09:29:38;;;;;;;;;;;5.90;71.50;;;;;;5087934;28;19912;-83
2023/03/15 09:32:04;;;;;;;;;;;5.60;72.90;;;;;;5089591;28;19912;-84
2023/03/15 09:34:29;;;;;;;;;;;5.60;74.00;;;;;;5101246;28;19951;-83
2023/03/15 09:36:58;;;;;;;;;;;5.60;73.60;;;;;;5103097;28;19988;-83
2023/03/15 09:39:23;;;;;;;;;;;5.60;71.90;;;;;;5087493;28;20000;-81
2023/03/15 09:41:49;;;;;;;;;;;5.60;72.20;;;;;;5084343;28;19912;-83
2023/03/15 09:44:33;;;;;;;;;;;5.50;72.10;;;;;;5090664;28;19923;-83
2023/03/15 09:47:09;;;;;;;;;;;5.70;73.20;;;;;;5093878;28;19912;-83
2023/03/15 09:49:41;;;;;;;;;;;5.60;71.80;;;;;;5081870;28;19958;-83
2023/03/15 09:52:15;;;;;;;;;;;5.60;71.70;;;;;;5093871;28;19918;-82
2023/03/15 09:54:46;;;;;;;;;;;5.50;72.40;;;;;;5118688;28;19915;-82
2023/03/15 09:57:18;;;;;;;;;;;5.70;73.00;;;;;;5102575;28;19912;-82
2023/03/15 09:59:45;;;;;;;;;;;5.80;73.60;;;;;;5108753;28;19974;-81
2023/03/15 10:02:31;;;;;;;;;;;6.00;73.30;;;;;;5110658;28;19912;-82
2023/03/15 10:05:07;;;;;;;;;;;6.10;72.60;;;;;;5116218;28;19919;-82
2023/03/15 10:07:33;;;;;;;;;;;6.40;71.10;;;;;;5091331;28;19946;-81
2023/03/15 10:10:00;;;;;;;;;;;6.20;72.60;;;;;;5088771;28;19932;-80
2023/03/15 10:12:30;;;;;;;;;;;6.10;71.00;;;;;;5098186;28;20685;-81
2023/03/15 10:14:59;;;;;;;;;;;6.10;69.60;;;;;;5107517;28;19942;-82
2023/03/15 10:17:34;;;;;;;;;;;6.20;69.70;;;;;;5093981;28;19943;-82
2023/03/15 10:20:04;;;;;;;;;;;6.30;68.10;;;;;;5116391;28;19934;-82
2023/03/15 10:22:36;;;;;;;;;;;6.30;68.70;;;;;;5122152;28;19926;-82
2023/03/15 10:25:10;;;;;;;;;;;6.50;69.20;;;;;;5087942;28;20400;-82
2023/03/15 10:27:41;;;;;;;;;;;6.30;68.10;;;;;;5086943;28;20343;-82
2023/03/15 10:30:18;;;;;;;;;;;6.50;69.50;;;;;;5086428;28;19922;-84
2023/03/15 10:32:45;;;;;;;;;;;6.60;68.70;;;;;;5098648;28;20003;-83
2023/03/15 10:35:15;;;;;;;;;;;6.50;67.50;;;;;;5086865;28;20195;-83
2023/03/15 10:37:41;;;;;;;;;;;6.50;66.20;;;;;;5089423;28;19919;-83
2023/03/15 10:40:14;;;;;;;;;;;6.50;64.60;;;;;;5088040;28;19989;-82
2023/03/15 10:42:40;;;;;;;;;;;6.40;64.60;;;;;;5095066;28;19908;-83
2023/03/15 10:45:11;;;;;;;;;;;6.30;65.30;;;;;;5094790;28;20497;-81
2023/03/15 10:47:42;;;;;;;;;;;6.50;64.90;;;;;;5094673;28;19957;-83
2023/03/15 10:50:08;;;;;;;;;;;6.70;64.90;;;;;;5098169;28;20013;-82
2023/03/15 10:52:35;;;;;;;;;;;6.70;64.90;;;;;;5111426;28;19916;-82
2023/03/15 10:55:03;;;;;;;;;;;6.80;65.30;;;;;;5091484;28;19942;-81
2023/03/15 10:57:33;;;;;;;;;;;6.70;64.60;;;;;;5079606;28;19923;-81
2023/03/15 11:00:08;;;;;;;;;;;6.70;61.30;;;;;;5082339;28;19912;-82
2023/03/15 11:02:33;;;;;;;;;;;6.50;62.10;;;;;;5081912;28;19919;-81
2023/03/15 11:05:01;;;;;;;;;;;6.50;61.70;;;;;;5087326;28;20282;-80
2023/03/15 11:07:26;;;;;;;;;;;6.50;61.00;;;;;;5088502;28;19920;-80
2023/03/15 11:09:54;;;;;;;;;;;6.60;61.50;;;;;;5110372;28;19918;-81
2023/03/15 11:12:26;;;;;;;;;;;6.70;62.00;;;;;;5085108;28;19912;-80
2023/03/15 11:14:56;;;;;;;;;;;6.80;60.60;;;;;;5099774;28;20330;-83
2023/03/15 11:17:24;;;;;;;;;;;7.00;60.50;;;;;;5083440;28;19923;-82
2023/03/15 11:19:55;;;;;;;;;;;6.90;60.90;;;;;;5105438;28;19920;-82
2023/03/15 11:22:20;;;;;;;;;;;6.80;61.30;;;;;;5086125;28;19943;-81
2023/03/15 11:24:45;;;;;;;;;;;6.60;63.10;;;;;;5099016;28;19981;-81
2023/03/15 11:27:13;;;;;;;;;;;6.50;64.50;;;;;;5097944;28;19942;-81
2023/03/15 11:29:41;;;;;;;;;;;6.50;62.60;;;;;;5102192;28;22036;-82
2023/03/15 11:32:12;;;;;;;;;;;6.50;61.30;;;;;;5085304;28;19934;-83
2023/03/15 11:34:37;;;;;;;;;;;6.50;63.50;;;;;;5106496;28;19979;-83
2023/03/15 11:37:13;;;;;;;;;;;6.60;63.20;;;;;;5101359;27;19901;-83
2023/03/15 11:40:02;;;;;;;;;;;6.60;60.80;;;;;;5117938;27;19903;-79
2023/03/15 11:42:37;;;;;;;;;;;6.90;56.70;;;;;;5111071;27;19915;-84
2023/03/15 11:45:12;;;;;;;;;;;7.00;57.30;;;;;;5126323;27;19924;-82
2023/03/15 11:47:44;;;;;;;;;;;7.30;60.10;;;;;;5104945;28;19983;-83
2023/03/15 11:50:14;;;;;;;;;;;7.50;55.10;;;;;;5107545;28;19924;-83
2023/03/15 11:52:41;;;;;;;;;;;7.50;54.50;;;;;;5111836;28;19907;-83
2023/03/15 11:55:14;;;;;;;;;;;7.60;55.20;;;;;;5100316;28;19904;-83
2023/03/15 11:57:42;;;;;;;;;;;7.50;55.70;;;;;;5099588;28;19961;-83
2023/03/15 12:00:41;;;;;;;;;;;7.60;56.70;;;;;;5086264;28;20049;-82
2023/03/15 12:03:25;;;;;;;;;;;7.40;54.90;;;;;;5102961;28;20429;-82
2023/03/15 12:05:51;;;;;;;;;;;7.60;57.00;;;;;;5095401;28;19912;-82
2023/03/15 12:08:20;;;;;;;;;;;7.60;56.80;;;;;;5119556;27;19907;-83
2023/03/15 12:10:46;;;;;;;;;;;7.60;57.40;;;;;;5132854;27;19921;-84
2023/03/15 12:13:22;;;;;;;;;;;7.60;57.60;;;;;;5158771;27;19916;-82
2023/03/15 12:15:48;;;;;;;;;;;7.50;55.00;;;;;;5117065;28;19905;-84
2023/03/15 12:18:15;;;;;;;;;;;7.50;56.50;;;;;;5131953;27;19896;-83
2023/03/15 12:20:43;;;;;;;;;;;7.40;56.20;;;;;;5113409;28;19912;-83
2023/03/15 12:23:18;;;;;;;;;;;7.40;56.30;;;;;;5094000;28;19966;-82
2023/03/15 12:25:54;;;;;;;;;;;7.50;56.60;;;;;;5105210;28;19983;-83
2023/03/15 12:28:22;;;;;;;;;;;7.60;56.90;;;;;;5098326;28;19944;-82
2023/03/15 12:30:52;;;;;;;;;;;7.80;57.10;;;;;;5099320;28;19975;-83
2023/03/15 12:33:19;;;;;;;;;;;7.80;56.60;;;;;;5092566;28;19912;-83
2023/03/15 12:35:45;;;;;;;;;;;7.80;55.70;;;;;;5093178;28;19964;-83
2023/03/15 12:38:18;;;;;;;;;;;8.00;56.70;;;;;;5104844;28;20002;-76
2023/03/15 12:41:06;;;;;;;;;;;8.00;56.80;;;;;;5087661;28;19912;-76
2023/03/15 12:43:46;;;;;;;;;;;8.10;57.10;;;;;;5081732;28;19912;-81
2023/03/15 12:46:34;;;;;;;;;;;8.10;54.70;;;;;;5091100;28;19933;-81
2023/03/15 12:49:09;;;;;;;;;;;7.90;53.60;;;;;;5091158;28;19962;-82
2023/03/15 12:51:42;;;;;;;;;;;8.00;51.30;;;;;;5089110;28;20392;-82
2023/03/15 12:54:10;;;;;;;;;;;7.90;52.70;;;;;;5093273;28;19920;-82
2023/03/15 12:56:38;;;;;;;;;;;7.80;50.30;;;;;;5092336;28;19984;-82
2023/03/15 12:59:09;;;;;;;;;;;7.80;50.50;;;;;;5089344;28;19957;-81
2023/03/15 13:01:34;;;;;;;;;;;7.60;49.90;;;;;;5085823;28;19912;-75
2023/03/15 13:04:00;;;;;;;;;;;7.60;52.40;;;;;;5082443;28;19927;-78
2023/03/15 13:06:44;;;;;;;;;;;7.70;51.90;;;;;;5103630;28;20002;-76
2023/03/15 13:09:10;;;;;;;;;;;7.90;52.60;;;;;;5082786;28;19963;-83
2023/03/15 13:11:36;;;;;;;;;;;8.00;54.40;;;;;;5090433;28;20405;-84
2023/03/15 13:14:10;;;;;;;;;;;8.10;51.50;;;;;;5089806;28;19915;-84
2023/03/15 13:16:53;;;;;;;;;;;8.30;51.40;;;;;;5083926;28;19916;-83
2023/03/15 13:19:24;;;;;;;;;;;8.30;52.20;;;;;;5091182;28;19911;-82
2023/03/15 13:21:56;;;;;;;;;;;8.40;51.10;;;;;;5086165;28;20023;-83
2023/03/15 13:24:41;;;;;;;;;;;8.60;51.20;;;;;;5101646;28;19920;-80
2023/03/15 13:27:07;;;;;;;;;;;8.60;51.10;;;;;;5084022;28;19920;-80
2023/03/15 13:29:33;;;;;;;;;;;8.80;46.90;;;;;;5098330;28;19916;-78
2023/03/15 13:32:00;;;;;;;;;;;8.80;49.50;;;;;;5096327;28;19966;-79
2023/03/15 13:34:29;;;;;;;;;;;8.70;48.10;;;;;;5082799;28;19979;-80
2023/03/15 13:36:59;;;;;;;;;;;8.70;50.50;;;;;;5108360;28;19912;-81
2023/03/15 13:39:25;;;;;;;;;;;8.60;43.70;;;;;;5084889;28;19926;-80
2023/03/15 13:42:03;;;;;;;;;;;8.40;41.40;;;;;;5105162;28;19912;-82
2023/03/15 13:44:30;;;;;;;;;;;8.30;41.30;;;;;;5084145;28;19911;-80
2023/03/15 13:46:56;;;;;;;;;;;8.10;43.90;;;;;;5095497;28;19977;-81
2023/03/15 13:49:21;;;;;;;;;;;8.30;42.50;;;;;;5109740;28;20333;-81
2023/03/15 13:51:48;;;;;;;;;;;8.20;43.00;;;;;;5086887;28;20022;-81
2023/03/15 13:54:34;;;;;;;;;;;8.10;43.60;;;;;;5086587;28;19980;-81
2023/03/15 13:57:00;;;;;;;;;;;8.10;44.70;;;;;;5107200;28;22544;-82
2023/03/15 13:59:37;;;;;;;;;;;8.00;45.30;;;;;;5091155;28;19947;-81
2023/03/15 14:02:03;;;;;;;;;;;8.10;45.30;;;;;;5105020;27;19922;-82
2023/03/15 14:04:30;;;;;;;;;;;8.00;46.50;;;;;;5091596;28;19912;-82
2023/03/15 14:07:14;;;;;;;;;;;8.10;45.60;;;;;;5109798;28;19912;-82
2023/03/15 14:09:40;;;;;;;;;;;8.20;46.50;;;;;;5089019;28;19940;-81
2023/03/15 14:12:14;;;;;;;;;;;8.30;46.30;;;;;;5087981;28;20097;-83
2023/03/15 14:14:47;;;;;;;;;;;8.30;49.00;;;;;;5096819;28;19923;-82
2023/03/15 14:17:18;;;;;;;;;;;8.10;47.40;;;;;;5081633;28;19928;-81
2023/03/15 14:19:53;;;;;;;;;;;8.10;49.00;;;;;;5098146;28;19935;-82
2023/03/15 14:22:18;;;;;;;;;;;8.20;49.90;;;;;;5086521;28;19915;-81
2023/03/15 14:24:46;;;;;;;;;;;8.20;45.80;;;;;;5090288;28;19934;-81
2023/03/15 14:27:17;;;;;;;;;;;8.30;44.50;;;;;;5088008;28;19955;-81
2023/03/15 14:29:53;;;;;;;;;;;8.10;44.00;;;;;;5108815;28;19912;-76
2023/03/15 14:32:37;;;;;;;;;;;8.10;44.50;;;;;;5086858;28;19927;-77
2023/03/15 14:35:23;;;;;;;;;;;7.90;46.60;;;;;;5101715;28;20337;-77
2023/03/15 14:38:07;;;;;;;;;;;7.70;47.00;;;;;;5088655;28;19947;-76
2023/03/15 14:40:34;;;;;;;;;;;7.80;44.10;;;;;;5083433;28;19919;-75
2023/03/15 14:43:00;;;;;;;;;;;7.70;47.80;;;;;;5082896;28;20374;-76